sensor_id;sensor_type;location;lat;lon;timestamp;P1;durP1;ratioP1;P2;durP2;ratioP2
35042;SDS011;21230;51.170;17.024;2022-09-16T00:01:35;10.13;;;2.97;;
35042;SDS011;21230;51.170;17.024;2022-09-16T00:04:01;4.30;;;3.22;;
35042;SDS011;21230;51.170;17.024;2022-09-16T00:06:28;5.63;;;3.65;;
35042;SDS011;21230;51.170;17.024;2022-09-16T00:08:55;6.13;;;3.63;;
35042;SDS011;21230;51.170;17.024;2022-09-16T00:11:22;6.45;;;2.65;;
35042;SDS011;21230;51.170;17.024;2022-09-16T00:13:49;8.88;;;3.70;;
35042;SDS011;21230;51.170;17.024;2022-09-16T00:16:16;13.65;;;3.80;;
35042;SDS011;21230;51.170;17.024;2022-09-16T00:18:45;4.82;;;3.22;;
35042;SDS011;21230;51.170;17.024;2022-09-16T00:21:12;5.07;;;2.88;;
35042;SDS011;21230;51.170;17.024;2022-09-16T00:23:38;7.03;;;4.00;;
35042;SDS011;21230;51.170;17.024;2022-09-16T00:26:04;6.18;;;3.40;;
35042;SDS011;21230;51.170;17.024;2022-09-16T00:28:30;6.55;;;4.32;;
35042;SDS011;21230;51.170;17.024;2022-09-16T00:31:00;10.45;;;4.53;;
35042;SDS011;21230;51.170;17.024;2022-09-16T00:33:26;9.07;;;4.18;;
35042;SDS011;21230;51.170;17.024;2022-09-16T00:36:35;7.53;;;3.45;;
35042;SDS011;21230;51.170;17.024;2022-09-16T00:38:43;7.32;;;3.45;;
35042;SDS011;21230;51.170;17.024;2022-09-16T00:41:16;5.85;;;3.78;;
35042;SDS011;21230;51.170;17.024;2022-09-16T00:43:52;3.65;;;3.00;;
35042;SDS011;21230;51.170;17.024;2022-09-16T00:46:19;8.82;;;3.95;;
35042;SDS011;21230;51.170;17.024;2022-09-16T00:48:50;7.60;;;3.75;;
35042;SDS011;21230;51.170;17.024;2022-09-16T00:51:17;13.75;;;3.80;;
35042;SDS011;21230;51.170;17.024;2022-09-16T00:54:00;6.53;;;3.40;;
35042;SDS011;21230;51.170;17.024;2022-09-16T00:59:04;6.75;;;3.00;;
35042;SDS011;21230;51.170;17.024;2022-09-16T01:01:38;7.53;;;3.85;;
35042;SDS011;21230;51.170;17.024;2022-09-16T01:04:10;11.95;;;3.10;;
35042;SDS011;21230;51.170;17.024;2022-09-16T01:06:40;6.57;;;3.10;;
35042;SDS011;21230;51.170;17.024;2022-09-16T01:09:06;5.55;;;3.35;;
35042;SDS011;21230;51.170;17.024;2022-09-16T01:11:32;6.10;;;3.17;;
35042;SDS011;21230;51.170;17.024;2022-09-16T01:13:58;8.60;;;3.08;;
35042;SDS011;21230;51.170;17.024;2022-09-16T01:16:48;6.88;;;3.25;;
35042;SDS011;21230;51.170;17.024;2022-09-16T01:36:37;4.80;;;2.85;;
35042;SDS011;21230;51.170;17.024;2022-09-16T01:49:47;6.13;;;3.63;;
35042;SDS011;21230;51.170;17.024;2022-09-16T01:52:38;3.38;;;2.20;;
35042;SDS011;21230;51.170;17.024;2022-09-16T01:55:29;11.73;;;3.80;;
35042;SDS011;21230;51.170;17.024;2022-09-16T01:58:00;7.38;;;2.40;;
35042;SDS011;21230;51.170;17.024;2022-09-16T02:00:35;6.80;;;3.17;;
35042;SDS011;21230;51.170;17.024;2022-09-16T02:03:07;11.20;;;3.00;;
35042;SDS011;21230;51.170;17.024;2022-09-16T02:08:41;12.07;;;2.47;;
35042;SDS011;21230;51.170;17.024;2022-09-16T02:11:14;6.35;;;3.58;;
35042;SDS011;21230;51.170;17.024;2022-09-16T02:13:49;10.23;;;3.15;;
35042;SDS011;21230;51.170;17.024;2022-09-16T02:16:27;6.75;;;3.17;;
35042;SDS011;21230;51.170;17.024;2022-09-16T02:19:00;6.00;;;3.72;;
35042;SDS011;21230;51.170;17.024;2022-09-16T02:21:32;5.47;;;3.03;;
35042;SDS011;21230;51.170;17.024;2022-09-16T02:24:02;6.20;;;3.28;;
35042;SDS011;21230;51.170;17.024;2022-09-16T02:26:36;14.57;;;3.88;;
35042;SDS011;21230;51.170;17.024;2022-09-16T02:29:07;8.57;;;3.63;;
35042;SDS011;21230;51.170;17.024;2022-09-16T02:31:38;7.30;;;3.92;;
35042;SDS011;21230;51.170;17.024;2022-09-16T02:34:11;6.25;;;3.80;;
35042;SDS011;21230;51.170;17.024;2022-09-16T02:36:44;9.52;;;3.30;;
35042;SDS011;21230;51.170;17.024;2022-09-16T02:39:17;6.80;;;3.92;;
35042;SDS011;21230;51.170;17.024;2022-09-16T02:41:46;6.50;;;3.25;;
35042;SDS011;21230;51.170;17.024;2022-09-16T02:44:13;6.82;;;3.90;;
35042;SDS011;21230;51.170;17.024;2022-09-16T02:46:46;13.55;;;3.13;;
35042;SDS011;21230;51.170;17.024;2022-09-16T02:54:24;9.20;;;2.72;;
35042;SDS011;21230;51.170;17.024;2022-09-16T02:56:53;6.70;;;2.17;;
35042;SDS011;21230;51.170;17.024;2022-09-16T02:59:19;4.28;;;2.10;;
35042;SDS011;21230;51.170;17.024;2022-09-16T03:01:46;2.92;;;1.77;;
35042;SDS011;21230;51.170;17.024;2022-09-16T03:04:14;6.75;;;1.80;;
35042;SDS011;21230;51.170;17.024;2022-09-16T03:06:41;3.55;;;2.05;;
35042;SDS011;21230;51.170;17.024;2022-09-16T03:09:07;5.65;;;2.05;;
35042;SDS011;21230;51.170;17.024;2022-09-16T03:22:54;7.30;;;1.70;;
35042;SDS011;21230;51.170;17.024;2022-09-16T03:25:28;9.10;;;2.03;;
35042;SDS011;21230;51.170;17.024;2022-09-16T03:28:09;7.45;;;1.65;;
35042;SDS011;21230;51.170;17.024;2022-09-16T03:31:08;5.07;;;1.40;;
35042;SDS011;21230;51.170;17.024;2022-09-16T03:33:45;5.95;;;2.10;;
35042;SDS011;21230;51.170;17.024;2022-09-16T03:36:17;6.40;;;2.05;;
35042;SDS011;21230;51.170;17.024;2022-09-16T03:38:47;4.32;;;1.80;;
35042;SDS011;21230;51.170;17.024;2022-09-16T03:41:16;5.70;;;1.92;;
35042;SDS011;21230;51.170;17.024;2022-09-16T03:43:52;3.88;;;1.73;;
35042;SDS011;21230;51.170;17.024;2022-09-16T03:46:19;8.63;;;1.98;;
35042;SDS011;21230;51.170;17.024;2022-09-16T03:48:45;3.03;;;1.60;;
35042;SDS011;21230;51.170;17.024;2022-09-16T03:51:11;6.53;;;2.22;;
35042;SDS011;21230;51.170;17.024;2022-09-16T03:53:36;8.77;;;2.15;;
35042;SDS011;21230;51.170;17.024;2022-09-16T03:56:02;5.40;;;2.03;;
35042;SDS011;21230;51.170;17.024;2022-09-16T03:58:28;3.85;;;1.15;;
35042;SDS011;21230;51.170;17.024;2022-09-16T04:00:54;4.10;;;1.65;;
35042;SDS011;21230;51.170;17.024;2022-09-16T04:03:20;5.70;;;2.17;;
35042;SDS011;21230;51.170;17.024;2022-09-16T04:05:50;3.03;;;1.92;;
35042;SDS011;21230;51.170;17.024;2022-09-16T04:08:19;3.03;;;1.92;;
35042;SDS011;21230;51.170;17.024;2022-09-16T04:10:55;7.57;;;2.53;;
35042;SDS011;21230;51.170;17.024;2022-09-16T04:13:22;2.60;;;2.15;;
35042;SDS011;21230;51.170;17.024;2022-09-16T04:15:48;4.82;;;2.85;;
35042;SDS011;21230;51.170;17.024;2022-09-16T04:18:14;3.88;;;2.15;;
35042;SDS011;21230;51.170;17.024;2022-09-16T04:20:40;8.55;;;3.13;;
35042;SDS011;21230;51.170;17.024;2022-09-16T04:23:06;3.78;;;2.10;;
35042;SDS011;21230;51.170;17.024;2022-09-16T04:25:33;7.63;;;2.15;;
35042;SDS011;21230;51.170;17.024;2022-09-16T04:27:59;3.72;;;2.30;;
35042;SDS011;21230;51.170;17.024;2022-09-16T04:30:25;5.45;;;1.60;;
35042;SDS011;21230;51.170;17.024;2022-09-16T04:32:52;3.95;;;1.88;;
35042;SDS011;21230;51.170;17.024;2022-09-16T04:35:18;6.88;;;2.42;;
35042;SDS011;21230;51.170;17.024;2022-09-16T04:37:45;2.55;;;2.08;;
35042;SDS011;21230;51.170;17.024;2022-09-16T04:40:10;8.55;;;3.35;;
35042;SDS011;21230;51.170;17.024;2022-09-16T04:42:36;4.80;;;2.88;;
35042;SDS011;21230;51.170;17.024;2022-09-16T04:45:02;4.00;;;2.15;;
35042;SDS011;21230;51.170;17.024;2022-09-16T04:47:29;4.68;;;2.20;;
35042;SDS011;21230;51.170;17.024;2022-09-16T04:49:55;6.68;;;2.80;;
35042;SDS011;21230;51.170;17.024;2022-09-16T04:52:21;9.45;;;2.95;;
35042;SDS011;21230;51.170;17.024;2022-09-16T04:54:46;5.25;;;2.75;;
35042;SDS011;21230;51.170;17.024;2022-09-16T04:57:12;4.20;;;2.38;;
35042;SDS011;21230;51.170;17.024;2022-09-16T04:59:38;4.82;;;3.13;;
35042;SDS011;21230;51.170;17.024;2022-09-16T05:02:04;3.75;;;2.22;;
35042;SDS011;21230;51.170;17.024;2022-09-16T05:04:30;13.63;;;2.88;;
35042;SDS011;21230;51.170;17.024;2022-09-16T05:06:56;5.22;;;2.53;;
35042;SDS011;21230;51.170;17.024;2022-09-16T05:09:22;7.85;;;2.30;;
35042;SDS011;21230;51.170;17.024;2022-09-16T05:11:48;5.95;;;2.78;;
35042;SDS011;21230;51.170;17.024;2022-09-16T05:14:14;4.38;;;2.55;;
35042;SDS011;21230;51.170;17.024;2022-09-16T05:16:42;12.77;;;4.72;;
35042;SDS011;21230;51.170;17.024;2022-09-16T05:19:11;9.25;;;4.45;;
35042;SDS011;21230;51.170;17.024;2022-09-16T05:21:38;13.77;;;4.55;;
35042;SDS011;21230;51.170;17.024;2022-09-16T05:24:08;11.70;;;4.55;;
35042;SDS011;21230;51.170;17.024;2022-09-16T05:26:36;5.85;;;3.85;;
35042;SDS011;21230;51.170;17.024;2022-09-16T05:29:05;8.57;;;4.13;;
35042;SDS011;21230;51.170;17.024;2022-09-16T05:31:39;7.30;;;3.92;;
35042;SDS011;21230;51.170;17.024;2022-09-16T05:36:45;7.18;;;5.03;;
35042;SDS011;21230;51.170;17.024;2022-09-16T05:39:12;6.82;;;4.57;;
35042;SDS011;21230;51.170;17.024;2022-09-16T05:41:42;12.90;;;5.05;;
35042;SDS011;21230;51.170;17.024;2022-09-16T05:44:08;6.85;;;4.20;;
35042;SDS011;21230;51.170;17.024;2022-09-16T05:46:35;7.82;;;4.53;;
35042;SDS011;21230;51.170;17.024;2022-09-16T05:49:01;5.88;;;4.20;;
35042;SDS011;21230;51.170;17.024;2022-09-16T05:51:27;7.57;;;4.97;;
35042;SDS011;21230;51.170;17.024;2022-09-16T05:53:53;7.80;;;4.57;;
35042;SDS011;21230;51.170;17.024;2022-09-16T05:56:20;10.50;;;3.90;;
35042;SDS011;21230;51.170;17.024;2022-09-16T05:58:50;9.80;;;3.50;;
35042;SDS011;21230;51.170;17.024;2022-09-16T06:01:22;5.53;;;4.28;;
35042;SDS011;21230;51.170;17.024;2022-09-16T06:03:49;5.03;;;3.70;;
35042;SDS011;21230;51.170;17.024;2022-09-16T06:06:29;8.48;;;4.50;;
35042;SDS011;21230;51.170;17.024;2022-09-16T06:09:09;10.23;;;4.40;;
35042;SDS011;21230;51.170;17.024;2022-09-16T06:11:42;8.65;;;4.47;;
35042;SDS011;21230;51.170;17.024;2022-09-16T06:14:09;7.07;;;4.50;;
35042;SDS011;21230;51.170;17.024;2022-09-16T06:16:36;8.75;;;5.13;;
35042;SDS011;21230;51.170;17.024;2022-09-16T06:19:04;9.32;;;4.63;;
35042;SDS011;21230;51.170;17.024;2022-09-16T06:21:34;12.95;;;4.53;;
35042;SDS011;21230;51.170;17.024;2022-09-16T06:24:01;7.65;;;4.93;;
35042;SDS011;21230;51.170;17.024;2022-09-16T06:26:28;10.45;;;4.95;;
35042;SDS011;21230;51.170;17.024;2022-09-16T06:28:56;8.35;;;5.13;;
35042;SDS011;21230;51.170;17.024;2022-09-16T06:31:24;12.50;;;4.88;;
35042;SDS011;21230;51.170;17.024;2022-09-16T06:33:52;8.93;;;5.35;;
35042;SDS011;21230;51.170;17.024;2022-09-16T06:36:19;9.70;;;5.30;;
35042;SDS011;21230;51.170;17.024;2022-09-16T06:41:35;10.05;;;5.47;;
35042;SDS011;21230;51.170;17.024;2022-09-16T06:44:10;6.07;;;4.97;;
35042;SDS011;21230;51.170;17.024;2022-09-16T06:46:45;7.72;;;4.93;;
35042;SDS011;21230;51.170;17.024;2022-09-16T06:49:12;7.75;;;4.72;;
35042;SDS011;21230;51.170;17.024;2022-09-16T06:52:42;9.27;;;5.25;;
35042;SDS011;21230;51.170;17.024;2022-09-16T06:54:46;5.63;;;3.78;;
35042;SDS011;21230;51.170;17.024;2022-09-16T06:57:19;7.45;;;4.03;;
35042;SDS011;21230;51.170;17.024;2022-09-16T07:00:41;6.28;;;4.05;;
35042;SDS011;21230;51.170;17.024;2022-09-16T07:06:53;7.10;;;3.00;;
35042;SDS011;21230;51.170;17.024;2022-09-16T07:09:58;6.55;;;3.42;;
35042;SDS011;21230;51.170;17.024;2022-09-16T07:58:35;9.82;;;2.50;;
35042;SDS011;21230;51.170;17.024;2022-09-16T08:01:08;4.15;;;3.05;;
35042;SDS011;21230;51.170;17.024;2022-09-16T08:03:34;6.07;;;3.13;;
35042;SDS011;21230;51.170;17.024;2022-09-16T08:06:01;5.20;;;2.60;;
35042;SDS011;21230;51.170;17.024;2022-09-16T08:08:32;9.20;;;2.70;;
35042;SDS011;21230;51.170;17.024;2022-09-16T08:11:05;5.35;;;2.00;;
35042;SDS011;21230;51.170;17.024;2022-09-16T08:13:33;8.02;;;2.80;;
35042;SDS011;21230;51.170;17.024;2022-09-16T08:18:55;5.78;;;2.30;;
35042;SDS011;21230;51.170;17.024;2022-09-16T08:21:28;4.90;;;2.35;;
35042;SDS011;21230;51.170;17.024;2022-09-16T08:23:59;3.57;;;2.43;;
35042;SDS011;21230;51.170;17.024;2022-09-16T08:26:55;10.27;;;2.90;;
35042;SDS011;21230;51.170;17.024;2022-09-16T08:29:23;4.35;;;2.38;;
35042;SDS011;21230;51.170;17.024;2022-09-16T08:31:51;5.85;;;2.53;;
35042;SDS011;21230;51.170;17.024;2022-09-16T08:34:23;6.65;;;2.95;;
35042;SDS011;21230;51.170;17.024;2022-09-16T08:37:06;6.03;;;2.70;;
35042;SDS011;21230;51.170;17.024;2022-09-16T08:39:38;4.65;;;2.65;;
35042;SDS011;21230;51.170;17.024;2022-09-16T08:42:20;2.55;;;2.00;;
